Time;durP1;ratioP1;P1;durP2;ratioP2;P2;SDS_P1;SDS_P2;PMS_P1;PMS_P2;Temp;Humidity;BMP_temperature;BMP_pressure;BME280_temperature;BME280_humidity;BME280_pressure;Samples;Min_cycle;Max_cycle;Signal;HPM_P1;HPM_P2
2021/08/23 00:02:23;;;;;;;;;;;;;;;;;;5025560;28;19932;-67
2021/08/23 00:04:50;;;;;;;;;;;;;;;;;;5015690;28;19951;-66
2021/08/23 00:07:17;;;;;;;;;;;;;;;;;;5015575;28;19930;-66
2021/08/23 00:09:46;;;;;;;;;;;;;;;;;;5016543;28;19933;-66
2021/08/23 00:12:14;;;;;;;;;;;;;;;;;;5016295;28;20427;-66
2021/08/23 00:14:40;;;;;;;;;;;;;;;;;;5017165;28;19940;-66
2021/08/23 00:17:07;;;;;;;;;;;;;;;;;;5015798;28;20981;-65
2021/08/23 00:19:34;;;;;;;;;;;;;;;;;;5013827;28;20821;-67
2021/08/23 00:22:11;;;;;;;;;;;;;;;;;;5016110;28;20054;-66
2021/08/23 00:24:38;;;;;;;;;;;;;;;;;;5014579;28;19933;-66
2021/08/23 00:27:05;;;;;;;;;;;;;;;;;;5015169;28;19940;-66
2021/08/23 00:29:32;;;;;;;;;;;;;;;;;;5016366;28;20395;-65
2021/08/23 00:31:59;;;;;;;;;;;;;;;;;;5016480;28;19952;-66
2021/08/23 00:34:26;;;;;;;;;;;;;;;;;;5013576;28;19953;-66
2021/08/23 00:36:53;;;;;;;;;;;;;;;;;;5014161;28;19933;-66
2021/08/23 00:39:20;;;;;;;;;;;;;;;;;;5015370;28;19933;-66
2021/08/23 00:41:47;;;;;;;;;;;;;;;;;;5022339;28;20365;-67
2021/08/23 00:44:14;;;;;;;;;;;;;;;;;;5027518;28;19929;-67
2021/08/23 00:46:41;;;;;;;;;;;;;;;;;;5018664;28;19929;-67
2021/08/23 00:49:08;;;;;;;;;;;;;;;;;;5015372;28;19939;-68
2021/08/23 00:51:35;;;;;;;;;;;;;;;;;;5022931;28;21346;-67
2021/08/23 00:54:01;;;;;;;;;;;;;;;;;;5027210;28;19932;-67
2021/08/23 00:56:28;;;;;;;;;;;;;;;;;;5023640;28;19937;-67
2021/08/23 00:58:55;;;;;;;;;;;;;;;;;;5028783;28;20385;-67
2021/08/23 01:01:22;;;;;;;;;;;;;;;;;;5022022;28;19933;-66
2021/08/23 01:03:49;;;;;;;;;;;;;;;;;;5018233;28;19933;-66
2021/08/23 01:06:16;;;;;;;;;;;;;;;;;;5021584;28;19925;-66
2021/08/23 01:08:44;;;;;;;;;;;;;;;;;;5027655;28;20292;-66
2021/08/23 01:11:11;;;;;;;;;;;;;;;;;;5028618;28;19935;-67
2021/08/23 01:13:38;;;;;;;;;;;;;;;;;;5024304;28;19931;-66
2021/08/23 01:16:05;;;;;;;;;;;;;;;;;;5019059;28;19932;-66
2021/08/23 01:18:34;;;;;;;;;;;;;;;;;;5018226;28;19933;-66
2021/08/23 01:21:02;;;;;;;;;;;;;;;;;;5015904;28;20096;-66
2021/08/23 01:23:29;;;;;;;;;;;;;;;;;;5019325;28;20389;-67
2021/08/23 01:25:56;;;;;;;;;;;;;;;;;;5017254;28;19984;-66
2021/08/23 01:28:23;;;;;;;;;;;;;;;;;;5019268;28;19925;-66
2021/08/23 01:30:50;;;;;;;;;;;;;;;;;;5018480;28;20749;-65
2021/08/23 01:33:17;;;;;;;;;;;;;;;;;;5020708;28;19925;-67
2021/08/23 01:35:44;;;;;;;;;;;;;;;;;;5018242;28;19933;-66
2021/08/23 01:38:11;;;;;;;;;;;;;;;;;;5016484;28;19926;-66
2021/08/23 01:40:38;;;;;;;;;;;;;;;;;;5019469;28;20423;-66
2021/08/23 01:43:05;;;;;;;;;;;;;;;;;;5017300;28;19940;-66
2021/08/23 01:45:32;;;;;;;;;;;;;;;;;;5024140;28;19929;-67
2021/08/23 01:47:59;;;;;;;;;;;;;;;;;;5020573;28;19932;-66
2021/08/23 01:50:26;;;;;;;;;;;;;;;;;;5023103;28;19979;-66
2021/08/23 01:52:52;;;;;;;;;;;;;;;;;;5030795;28;19929;-66
2021/08/23 01:55:19;;;;;;;;;;;;;;;;;;5033730;28;20305;-66
2021/08/23 01:57:46;;;;;;;;;;;;;;;;;;5027778;28;19953;-66
2021/08/23 02:00:13;;;;;;;;;;;;;;;;;;5027900;28;20419;-66
2021/08/23 02:02:40;;;;;;;;;;;;;;;;;;5032081;28;19932;-66
2021/08/23 02:05:07;;;;;;;;;;;;;;;;;;5032063;28;19932;-66
2021/08/23 02:07:34;;;;;;;;;;;;;;;;;;5027241;28;19929;-67
2021/08/23 02:10:01;;;;;;;;;;;;;;;;;;5025486;28;19925;-66
2021/08/23 02:12:28;;;;;;;;;;;;;;;;;;5026890;28;19931;-66
2021/08/23 02:14:55;;;;;;;;;;;;;;;;;;5031877;28;19929;-66
2021/08/23 02:17:22;;;;;;;;;;;;;;;;;;5027885;28;19975;-66
2021/08/23 02:19:49;;;;;;;;;;;;;;;;;;5024979;28;19947;-66
2021/08/23 02:22:16;;;;;;;;;;;;;;;;;;5022540;28;19929;-66
2021/08/23 02:24:43;;;;;;;;;;;;;;;;;;5024408;28;19947;-66
2021/08/23 02:27:10;;;;;;;;;;;;;;;;;;5022036;28;19936;-66
2021/08/23 02:29:37;;;;;;;;;;;;;;;;;;5017693;28;19943;-66
2021/08/23 02:32:04;;;;;;;;;;;;;;;;;;5019596;28;19926;-66
2021/08/23 02:34:30;;;;;;;;;;;;;;;;;;5018360;28;19925;-67
2021/08/23 02:36:57;;;;;;;;;;;;;;;;;;5019513;28;19943;-66
2021/08/23 02:39:24;;;;;;;;;;;;;;;;;;5021296;28;19929;-66
2021/08/23 02:41:53;;;;;;;;;;;;;;;;;;5020446;28;19941;-65
2021/08/23 02:44:20;;;;;;;;;;;;;;;;;;5019886;28;20511;-67
2021/08/23 02:46:47;;;;;;;;;;;;;;;;;;5019435;28;20067;-66
2021/08/23 02:49:16;;;;;;;;;;;;;;;;;;5019372;28;19933;-66
2021/08/23 02:51:43;;;;;;;;;;;;;;;;;;5020833;28;21715;-66
2021/08/23 02:54:10;;;;;;;;;;;;;;;;;;5019002;28;19930;-65
2021/08/23 02:56:37;;;;;;;;;;;;;;;;;;5016363;28;19940;-66
2021/08/23 02:59:04;;;;;;;;;;;;;;;;;;5021794;28;20397;-66
2021/08/23 03:01:31;;;;;;;;;;;;;;;;;;5018503;28;19929;-67
2021/08/23 03:03:58;;;;;;;;;;;;;;;;;;5022660;28;19931;-67
2021/08/23 03:06:25;;;;;;;;;;;;;;;;;;5026367;28;19932;-66
2021/08/23 03:08:52;;;;;;;;;;;;;;;;;;5020257;28;19929;-67
2021/08/23 03:11:19;;;;;;;;;;;;;;;;;;5023909;28;20459;-66
2021/08/23 03:13:46;;;;;;;;;;;;;;;;;;5021945;28;19928;-66
2021/08/23 03:16:13;;;;;;;;;;;;;;;;;;5025742;28;19971;-66
2021/08/23 03:18:40;;;;;;;;;;;;;;;;;;5031838;28;20401;-69
2021/08/23 03:21:07;;;;;;;;;;;;;;;;;;5028787;28;19932;-66
2021/08/23 03:23:33;;;;;;;;;;;;;;;;;;5021785;28;19932;-67
2021/08/23 03:26:00;;;;;;;;;;;;;;;;;;5022755;28;19932;-67
2021/08/23 03:28:27;;;;;;;;;;;;;;;;;;5025958;28;19926;-67
2021/08/23 03:30:54;;;;;;;;;;;;;;;;;;5025847;28;19932;-67
2021/08/23 03:33:21;;;;;;;;;;;;;;;;;;5031034;28;20020;-69
2021/08/23 03:35:48;;;;;;;;;;;;;;;;;;5025039;28;19932;-66
2021/08/23 03:38:15;;;;;;;;;;;;;;;;;;5021016;28;20290;-66
2021/08/23 03:40:42;;;;;;;;;;;;;;;;;;5016904;28;20084;-65
2021/08/23 03:43:09;;;;;;;;;;;;;;;;;;5048796;22;20498;-70
2021/08/23 03:45:36;;;;;;;;;;;;;;;;;;5029050;28;19933;-70
2021/08/23 03:48:03;;;;;;;;;;;;;;;;;;5032518;28;19940;-69
2021/08/23 03:50:30;;;;;;;;;;;;;;;;;;5027669;28;20004;-67
2021/08/23 03:52:57;;;;;;;;;;;;;;;;;;5025996;28;19933;-68
2021/08/23 03:55:24;;;;;;;;;;;;;;;;;;5021312;28;19933;-68
2021/08/23 03:57:51;;;;;;;;;;;;;;;;;;5026859;28;20316;-68
2021/08/23 04:00:18;;;;;;;;;;;;;;;;;;5025759;28;19940;-68
2021/08/23 04:02:46;;;;;;;;;;;;;;;;;;5025295;28;19933;-68
2021/08/23 04:05:13;;;;;;;;;;;;;;;;;;5024077;28;19937;-68
2021/08/23 04:07:40;;;;;;;;;;;;;;;;;;5029813;28;19986;-68
2021/08/23 04:10:07;;;;;;;;;;;;;;;;;;5024624;28;19935;-68
2021/08/23 04:12:34;;;;;;;;;;;;;;;;;;5027112;28;19932;-68
2021/08/23 04:15:01;;;;;;;;;;;;;;;;;;5034110;28;19931;-68
2021/08/23 04:17:28;;;;;;;;;;;;;;;;;;5042004;28;19929;-68
2021/08/23 04:19:55;;;;;;;;;;;;;;;;;;5038422;28;19931;-68
2021/08/23 04:22:22;;;;;;;;;;;;;;;;;;5040069;28;19931;-68
2021/08/23 04:24:48;;;;;;;;;;;;;;;;;;5040693;28;19931;-68
2021/08/23 04:27:15;;;;;;;;;;;;;;;;;;5028094;28;19932;-68
2021/08/23 04:29:42;;;;;;;;;;;;;;;;;;5035329;28;19925;-68
2021/08/23 04:32:10;;;;;;;;;;;;;;;;;;5037898;28;19925;-68
2021/08/23 04:34:37;;;;;;;;;;;;;;;;;;5037373;28;19931;-67
2021/08/23 04:37:04;;;;;;;;;;;;;;;;;;5039489;28;19936;-69
2021/08/23 04:39:31;;;;;;;;;;;;;;;;;;5035815;28;19933;-70
2021/08/23 04:41:58;;;;;;;;;;;;;;;;;;5035978;28;20436;-69
2021/08/23 04:44:25;;;;;;;;;;;;;;;;;;5035015;28;19951;-70
2021/08/23 04:46:52;;;;;;;;;;;;;;;;;;5033033;28;19932;-69
2021/08/23 04:49:19;;;;;;;;;;;;;;;;;;5029700;28;19929;-70
2021/08/23 04:51:46;;;;;;;;;;;;;;;;;;5033650;28;19925;-70
2021/08/23 04:54:13;;;;;;;;;;;;;;;;;;5036059;28;20253;-71
2021/08/23 04:56:40;;;;;;;;;;;;;;;;;;5038908;28;19925;-70
2021/08/23 04:59:07;;;;;;;;;;;;;;;;;;5038254;28;20024;-70
2021/08/23 05:01:34;;;;;;;;;;;;;;;;;;5030501;28;19925;-70
2021/08/23 05:04:01;;;;;;;;;;;;;;;;;;5035170;28;19933;-71
2021/08/23 05:06:28;;;;;;;;;;;;;;;;;;5033961;28;19929;-69
2021/08/23 05:08:55;;;;;;;;;;;;;;;;;;5034877;28;19931;-70
2021/08/23 05:11:22;;;;;;;;;;;;;;;;;;5028814;28;20411;-70
2021/08/23 05:13:49;;;;;;;;;;;;;;;;;;5029755;28;19925;-69
2021/08/23 05:16:16;;;;;;;;;;;;;;;;;;5029003;28;19984;-70
2021/08/23 05:18:43;;;;;;;;;;;;;;;;;;5027481;28;19925;-69
2021/08/23 05:21:10;;;;;;;;;;;;;;;;;;5028279;28;19925;-69
2021/08/23 05:23:37;;;;;;;;;;;;;;;;;;5031863;28;19932;-70
2021/08/23 05:26:04;;;;;;;;;;;;;;;;;;5031644;28;19935;-68
2021/08/23 05:28:31;;;;;;;;;;;;;;;;;;5032189;28;19925;-69
2021/08/23 05:30:58;;;;;;;;;;;;;;;;;;5031890;28;19925;-69
2021/08/23 05:33:25;;;;;;;;;;;;;;;;;;5032526;28;20002;-69
2021/08/23 05:35:51;;;;;;;;;;;;;;;;;;5032018;28;19925;-70
2021/08/23 05:38:18;;;;;;;;;;;;;;;;;;5032437;28;19925;-71
2021/08/23 05:40:47;;;;;;;;;;;;;;;;;;5031538;28;19933;-69
2021/08/23 05:43:14;;;;;;;;;;;;;;;;;;5032327;28;19976;-70
2021/08/23 05:45:41;;;;;;;;;;;;;;;;;;5031698;28;19933;-71
2021/08/23 05:48:08;;;;;;;;;;;;;;;;;;5031415;28;20315;-70
2021/08/23 05:50:35;;;;;;;;;;;;;;;;;;5030027;28;19964;-70
2021/08/23 05:53:02;;;;;;;;;;;;;;;;;;5031177;28;19925;-70
2021/08/23 05:55:29;;;;;;;;;;;;;;;;;;5031126;28;19926;-71
2021/08/23 05:57:56;;;;;;;;;;;;;;;;;;5029881;28;19940;-70
2021/08/23 06:00:23;;;;;;;;;;;;;;;;;;5030520;28;19925;-71
2021/08/23 06:02:50;;;;;;;;;;;;;;;;;;5031642;28;19940;-70
2021/08/23 06:05:17;;;;;;;;;;;;;;;;;;5032207;28;19939;-70
2021/08/23 06:07:44;;;;;;;;;;;;;;;;;;5030094;28;19929;-70
2021/08/23 06:10:11;;;;;;;;;;;;;;;;;;5030558;28;19925;-70
2021/08/23 06:12:38;;;;;;;;;;;;;;;;;;5029943;28;19952;-69
2021/08/23 06:15:04;;;;;;;;;;;;;;;;;;5031483;28;19925;-69
2021/08/23 06:17:31;;;;;;;;;;;;;;;;;;5030172;28;19952;-69
2021/08/23 06:19:58;;;;;;;;;;;;;;;;;;5031048;28;19925;-70
2021/08/23 06:22:25;;;;;;;;;;;;;;;;;;5031100;28;19932;-70
2021/08/23 06:24:52;;;;;;;;;;;;;;;;;;5030566;28;20270;-69
2021/08/23 06:27:19;;;;;;;;;;;;;;;;;;5031538;28;19926;-70
2021/08/23 06:29:46;;;;;;;;;;;;;;;;;;5030129;28;19933;-69
2021/08/23 06:32:13;;;;;;;;;;;;;;;;;;5033072;28;19933;-69
2021/08/23 06:34:40;;;;;;;;;;;;;;;;;;5027119;28;19932;-68
2021/08/23 06:37:09;;;;;;;;;;;;;;;;;;5025292;28;20405;-69
2021/08/23 06:39:36;;;;;;;;;;;;;;;;;;5033480;28;19961;-68
2021/08/23 06:42:03;;;;;;;;;;;;;;;;;;5030519;28;19925;-68
2021/08/23 06:44:30;;;;;;;;;;;;;;;;;;5019986;28;19935;-69
2021/08/23 06:46:57;;;;;;;;;;;;;;;;;;5021986;28;19952;-69
2021/08/23 06:49:24;;;;;;;;;;;;;;;;;;5026301;28;19929;-70
2021/08/23 06:51:51;;;;;;;;;;;;;;;;;;5024868;28;19932;-69
2021/08/23 06:54:18;;;;;;;;;;;;;;;;;;5021172;28;19929;-71
2021/08/23 06:56:45;;;;;;;;;;;;;;;;;;5021052;28;19931;-70
2021/08/23 06:59:12;;;;;;;;;;;;;;;;;;5027264;28;19933;-70
2021/08/23 07:01:39;;;;;;;;;;;;;;;;;;5029065;28;19925;-70
2021/08/23 07:04:07;;;;;;;;;;;;;;;;;;5028722;28;19933;-70
2021/08/23 07:06:35;;;;;;;;;;;;;;;;;;5026557;28;20133;-70
2021/08/23 07:09:02;;;;;;;;;;;;;;;;;;5024467;28;19929;-71
2021/08/23 07:11:28;;;;;;;;;;;;;;;;;;5026339;28;19937;-70
2021/08/23 07:13:55;;;;;;;;;;;;;;;;;;5028362;28;19932;-70
2021/08/23 07:16:22;;;;;;;;;;;;;;;;;;5029508;28;20309;-70
2021/08/23 07:18:49;;;;;;;;;;;;;;;;;;5029454;28;19935;-72
2021/08/23 07:21:16;;;;;;;;;;;;;;;;;;5028090;28;19925;-71
2021/08/23 07:23:43;;;;;;;;;;;;;;;;;;5028286;28;19925;-70
2021/08/23 07:26:10;;;;;;;;;;;;;;;;;;5025242;28;19936;-70
2021/08/23 07:28:37;;;;;;;;;;;;;;;;;;5024770;28;20205;-70
2021/08/23 07:31:04;;;;;;;;;;;;;;;;;;5027454;28;19929;-68
2021/08/23 07:33:31;;;;;;;;;;;;;;;;;;5025450;28;19929;-68
2021/08/23 07:35:58;;;;;;;;;;;;;;;;;;5027743;28;19935;-71
2021/08/23 07:38:25;;;;;;;;;;;;;;;;;;5027882;28;20020;-69
2021/08/23 07:40:52;;;;;;;;;;;;;;;;;;5021663;28;19933;-70
2021/08/23 07:43:19;;;;;;;;;;;;;;;;;;5029525;28;19925;-70
2021/08/23 07:45:47;;;;;;;;;;;;;;;;;;5029418;28;20312;-69
2021/08/23 07:48:14;;;;;;;;;;;;;;;;;;5030202;28;19929;-69
2021/08/23 07:50:41;;;;;;;;;;;;;;;;;;5017084;28;19925;-70
2021/08/23 07:53:08;;;;;;;;;;;;;;;;;;5016053;28;19929;-69
2021/08/23 07:55:35;;;;;;;;;;;;;;;;;;5018600;28;19952;-70
2021/08/23 07:58:02;;;;;;;;;;;;;;;;;;5024672;28;20357;-68
2021/08/23 08:00:29;;;;;;;;;;;;;;;;;;5025610;28;19975;-69
2021/08/23 08:02:56;;;;;;;;;;;;;;;;;;5025508;28;19932;-70
2021/08/23 08:05:23;;;;;;;;;;;;;;;;;;5022764;28;19931;-69
2021/08/23 08:07:50;;;;;;;;;;;;;;;;;;5027040;28;19929;-71
2021/08/23 08:10:17;;;;;;;;;;;;;;;;;;5026797;28;19932;-70
2021/08/23 08:12:44;;;;;;;;;;;;;;;;;;5026023;28;19934;-69
2021/08/23 08:15:11;;;;;;;;;;;;;;;;;;5029335;28;19980;-71
2021/08/23 08:17:38;;;;;;;;;;;;;;;;;;5027044;28;20369;-71
2021/08/23 08:20:05;;;;;;;;;;;;;;;;;;5022650;28;19933;-71
2021/08/23 08:22:32;;;;;;;;;;;;;;;;;;5026390;28;19935;-70
2021/08/23 08:24:59;;;;;;;;;;;;;;;;;;5030066;28;19933;-68
2021/08/23 08:27:25;;;;;;;;;;;;;;;;;;5027088;28;19932;-70
2021/08/23 08:29:52;;;;;;;;;;;;;;;;;;5026236;28;20408;-69
2021/08/23 08:32:20;;;;;;;;;;;;;;;;;;5025627;28;20296;-69
2021/08/23 08:34:47;;;;;;;;;;;;;;;;;;5033128;28;19925;-70
2021/08/23 08:37:13;;;;;;;;;;;;;;;;;;5031180;28;19925;-71
2021/08/23 08:39:41;;;;;;;;;;;;;;;;;;5027069;28;19925;-70
2021/08/23 08:42:07;;;;;;;;;;;;;;;;;;5022687;28;19940;-70
2021/08/23 08:44:34;;;;;;;;;;;;;;;;;;5026683;28;20408;-70
2021/08/23 08:47:01;;;;;;;;;;;;;;;;;;5025756;28;19933;-70
2021/08/23 08:49:28;;;;;;;;;;;;;;;;;;5027801;28;19926;-70
2021/08/23 08:51:55;;;;;;;;;;;;;;;;;;5040309;28;20389;-70
2021/08/23 08:54:22;;;;;;;;;;;;;;;;;;5036599;28;19940;-70
2021/08/23 08:56:49;;;;;;;;;;;;;;;;;;5031802;28;19926;-70
2021/08/23 08:59:16;;;;;;;;;;;;;;;;;;5029212;28;20423;-70
2021/08/23 09:01:43;;;;;;;;;;;;;;;;;;5030361;28;19925;-70
2021/08/23 09:04:10;;;;;;;;;;;;;;;;;;5031097;28;19933;-70
2021/08/23 09:06:37;;;;;;;;;;;;;;;;;;5027424;28;19964;-69
2021/08/23 09:09:04;;;;;;;;;;;;;;;;;;5031472;28;19940;-70
2021/08/23 09:11:31;;;;;;;;;;;;;;;;;;5028054;28;19933;-70
2021/08/23 09:13:58;;;;;;;;;;;;;;;;;;5032142;28;19933;-70
2021/08/23 09:16:25;;;;;;;;;;;;;;;;;;5030151;28;19925;-69
2021/08/23 09:18:52;;;;;;;;;;;;;;;;;;5038443;28;20357;-69
2021/08/23 09:21:19;;;;;;;;;;;;;;;;;;5032265;28;20319;-68
2021/08/23 09:23:47;;;;;;;;;;;;;;;;;;5029584;28;20357;-70
2021/08/23 09:26:14;;;;;;;;;;;;;;;;;;5027851;28;19929;-69
2021/08/23 09:28:41;;;;;;;;;;;;;;;;;;5028531;28;19925;-70
2021/08/23 09:31:10;;;;;;;;;;;;;;;;;;5028971;28;20252;-70
2021/08/23 09:33:37;;;;;;;;;;;;;;;;;;5026360;28;19939;-71
2021/08/23 09:36:04;;;;;;;;;;;;;;;;;;5026673;28;20029;-70
2021/08/23 09:38:31;;;;;;;;;;;;;;;;;;5029243;28;19925;-71
2021/08/23 09:40:58;;;;;;;;;;;;;;;;;;5029792;28;19925;-69
2021/08/23 09:43:26;;;;;;;;;;;;;;;;;;5030144;28;20462;-70
2021/08/23 09:45:53;;;;;;;;;;;;;;;;;;5031867;28;19936;-69
2021/08/23 09:48:21;;;;;;;;;;;;;;;;;;5032837;28;19925;-69
2021/08/23 09:50:49;;;;;;;;;;;;;;;;;;5033888;28;19925;-70
2021/08/23 09:53:16;;;;;;;;;;;;;;;;;;5036179;28;20348;-69
2021/08/23 09:55:43;;;;;;;;;;;;;;;;;;5031418;28;20014;-68
2021/08/23 09:58:10;;;;;;;;;;;;;;;;;;5023813;28;19976;-69
2021/08/23 10:00:37;;;;;;;;;;;;;;;;;;5030632;28;20035;-70
2021/08/23 10:03:04;;;;;;;;;;;;;;;;;;5029724;28;19933;-71
2021/08/23 10:05:31;;;;;;;;;;;;;;;;;;5028695;28;19925;-70
2021/08/23 10:07:58;;;;;;;;;;;;;;;;;;5029132;28;19932;-69
2021/08/23 10:10:25;;;;;;;;;;;;;;;;;;5029835;28;20388;-69
2021/08/23 10:12:52;;;;;;;;;;;;;;;;;;5027786;28;19933;-71
2021/08/23 10:15:19;;;;;;;;;;;;;;;;;;5025147;28;19929;-69
2021/08/23 10:17:46;;;;;;;;;;;;;;;;;;5030517;28;19935;-70
2021/08/23 10:20:13;;;;;;;;;;;;;;;;;;5026025;28;20008;-71
2021/08/23 10:22:40;;;;;;;;;;;;;;;;;;5029634;28;19935;-70
2021/08/23 10:25:07;;;;;;;;;;;;;;;;;;5028409;28;19925;-70
2021/08/23 10:27:34;;;;;;;;;;;;;;;;;;5024659;28;20463;-69
2021/08/23 10:30:01;;;;;;;;;;;;;;;;;;5026451;28;19932;-70
2021/08/23 10:32:28;;;;;;;;;;;;;;;;;;5026661;28;20296;-71
2021/08/23 10:34:55;;;;;;;;;;;;;;;;;;5028064;28;19940;-67
2021/08/23 10:37:23;;;;;;;;;;;;;;;;;;5028687;28;19961;-67
2021/08/23 10:39:50;;;;;;;;;;;;;;;;;;5028654;28;19925;-69
2021/08/23 10:42:20;;;;;;;;;;;;;;;;;;5028503;28;19925;-68
2021/08/23 10:44:47;;;;;;;;;;;;;;;;;;5025570;28;20525;-67
2021/08/23 10:47:15;;;;;;;;;;;;;;;;;;5029202;28;19929;-68
2021/08/23 10:49:42;;;;;;;;;;;;;;;;;;5026669;28;19925;-66
2021/08/23 10:52:09;;;;;;;;;;;;;;;;;;5027630;28;20016;-69
2021/08/23 10:54:36;;;;;;;;;;;;;;;;;;5026251;28;19940;-66
2021/08/23 10:57:03;;;;;;;;;;;;;;;;;;5025253;28;20012;-67
2021/08/23 10:59:30;;;;;;;;;;;;;;;;;;5018633;28;20398;-66
2021/08/23 11:01:57;;;;;;;;;;;;;;;;;;5029975;28;20041;-68
2021/08/23 11:04:23;;;;;;;;;;;;;;;;;;5026817;28;19926;-67
2021/08/23 11:06:50;;;;;;;;;;;;;;;;;;5024847;28;19926;-68
2021/08/23 11:09:17;;;;;;;;;;;;;;;;;;5026908;28;20470;-66
2021/08/23 11:11:44;;;;;;;;;;;;;;;;;;5027356;28;19929;-66
2021/08/23 11:14:11;;;;;;;;;;;;;;;;;;5028534;28;19933;-67
2021/08/23 11:16:38;;;;;;;;;;;;;;;;;;5028107;28;19925;-65
2021/08/23 11:19:06;;;;;;;;;;;;;;;;;;5024982;28;20292;-67
2021/08/23 11:21:33;;;;;;;;;;;;;;;;;;5025730;28;19984;-68
2021/08/23 11:24:00;;;;;;;;;;;;;;;;;;5024536;28;19925;-67
2021/08/23 11:26:27;;;;;;;;;;;;;;;;;;5026112;28;19932;-66
2021/08/23 11:28:54;;;;;;;;;;;;;;;;;;5027615;28;20384;-69
2021/08/23 11:31:23;;;;;;;;;;;;;;;;;;5025200;28;19931;-67
2021/08/23 11:33:50;;;;;;;;;;;;;;;;;;5028505;28;19994;-67
2021/08/23 11:36:17;;;;;;;;;;;;;;;;;;5025704;28;19925;-68
2021/08/23 11:38:44;;;;;;;;;;;;;;;;;;5026157;28;19925;-69
2021/08/23 11:41:11;;;;;;;;;;;;;;;;;;5028149;28;19929;-67
2021/08/23 11:43:37;;;;;;;;;;;;;;;;;;5022254;28;20403;-67
2021/08/23 11:46:04;;;;;;;;;;;;;;;;;;5027163;28;19929;-67
2021/08/23 11:48:31;;;;;;;;;;;;;;;;;;5023669;28;19933;-67
2021/08/23 11:50:58;;;;;;;;;;;;;;;;;;5025601;28;20486;-68
2021/08/23 11:53:27;;;;;;;;;;;;;;;;;;5026972;28;19936;-67
2021/08/23 11:55:54;;;;;;;;;;;;;;;;;;5023142;28;19925;-65
2021/08/23 11:58:21;;;;;;;;;;;;;;;;;;5023625;28;19929;-68
2021/08/23 12:00:48;;;;;;;;;;;;;;;;;;5021281;28;19932;-66
2021/08/23 12:03:15;;;;;;;;;;;;;;;;;;5028531;28;19936;-67
2021/08/23 12:05:42;;;;;;;;;;;;;;;;;;5025039;28;19925;-66
2021/08/23 12:08:09;;;;;;;;;;;;;;;;;;5025513;28;19925;-67
2021/08/23 12:10:36;;;;;;;;;;;;;;;;;;5027871;28;19925;-66
2021/08/23 12:13:03;;;;;;;;;;;;;;;;;;5026572;28;19925;-67
2021/08/23 12:15:30;;;;;;;;;;;;;;;;;;5023342;28;19926;-66
2021/08/23 12:17:59;;;;;;;;;;;;;;;;;;5025967;28;19936;-69
2021/08/23 12:20:26;;;;;;;;;;;;;;;;;;5027153;28;19932;-67
2021/08/23 12:22:53;;;;;;;;;;;;;;;;;;5023940;28;19925;-66
2021/08/23 12:25:20;;;;;;;;;;;;;;;;;;5027700;28;20409;-68
2021/08/23 12:27:47;;;;;;;;;;;;;;;;;;5021391;28;19933;-66
2021/08/23 12:30:14;;;;;;;;;;;;;;;;;;5022019;28;19925;-67
2021/08/23 12:32:41;;;;;;;;;;;;;;;;;;5020699;28;19929;-66
2021/08/23 12:35:08;;;;;;;;;;;;;;;;;;5026303;28;20381;-67
2021/08/23 12:37:35;;;;;;;;;;;;;;;;;;5023743;28;20286;-66
2021/08/23 12:40:02;;;;;;;;;;;;;;;;;;5024598;28;20453;-67
2021/08/23 12:42:29;;;;;;;;;;;;;;;;;;5022542;28;20267;-66
2021/08/23 12:44:56;;;;;;;;;;;;;;;;;;5022714;28;20392;-67
2021/08/23 12:47:23;;;;;;;;;;;;;;;;;;5027457;28;19929;-66
2021/08/23 12:49:50;;;;;;;;;;;;;;;;;;5020812;28;19932;-65
2021/08/23 12:52:17;;;;;;;;;;;;;;;;;;5023529;28;19925;-67
2021/08/23 12:54:44;;;;;;;;;;;;;;;;;;5025348;28;20416;-68
2021/08/23 12:57:11;;;;;;;;;;;;;;;;;;5024618;28;20473;-65
2021/08/23 12:59:38;;;;;;;;;;;;;;;;;;5023608;28;19925;-68
2021/08/23 13:02:05;;;;;;;;;;;;;;;;;;5019238;28;20274;-68
2021/08/23 13:04:32;;;;;;;;;;;;;;;;;;5023670;28;19925;-67
2021/08/23 13:06:59;;;;;;;;;;;;;;;;;;5026089;28;20008;-68
2021/08/23 13:09:26;;;;;;;;;;;;;;;;;;5025429;28;20305;-69
2021/08/23 13:11:53;;;;;;;;;;;;;;;;;;5025389;28;19932;-68
2021/08/23 13:14:20;;;;;;;;;;;;;;;;;;5023749;28;19932;-64
2021/08/23 13:16:47;;;;;;;;;;;;;;;;;;5027117;28;19926;-69
2021/08/23 13:19:14;;;;;;;;;;;;;;;;;;5022817;28;20312;-68
2021/08/23 13:21:41;;;;;;;;;;;;;;;;;;5022066;28;19941;-68
2021/08/23 13:24:08;;;;;;;;;;;;;;;;;;5021265;28;20019;-67
2021/08/23 13:26:35;;;;;;;;;;;;;;;;;;5024737;28;19929;-69
2021/08/23 13:29:02;;;;;;;;;;;;;;;;;;5023843;28;19925;-67
2021/08/23 13:31:28;;;;;;;;;;;;;;;;;;5026659;28;19972;-68
2021/08/23 13:33:55;;;;;;;;;;;;;;;;;;5030169;28;19929;-69
2021/08/23 13:36:22;;;;;;;;;;;;;;;;;;5030289;28;20027;-68
2021/08/23 13:38:49;;;;;;;;;;;;;;;;;;5026907;28;19932;-70
2021/08/23 13:41:17;;;;;;;;;;;;;;;;;;5028964;28;20382;-70
2021/08/23 13:43:46;;;;;;;;;;;;;;;;;;5027869;28;20287;-68
2021/08/23 13:46:13;;;;;;;;;;;;;;;;;;5029168;28;19956;-69
2021/08/23 13:48:40;;;;;;;;;;;;;;;;;;5029183;28;20313;-70
2021/08/23 13:51:07;;;;;;;;;;;;;;;;;;5025169;28;20297;-69
2021/08/23 13:53:34;;;;;;;;;;;;;;;;;;5029154;28;19980;-69
2021/08/23 13:56:01;;;;;;;;;;;;;;;;;;5028352;28;19929;-68
2021/08/23 13:58:28;;;;;;;;;;;;;;;;;;5030964;28;19926;-68
2021/08/23 14:00:55;;;;;;;;;;;;;;;;;;5030446;28;19925;-68
2021/08/23 14:03:22;;;;;;;;;;;;;;;;;;5027058;28;19929;-69
2021/08/23 14:05:49;;;;;;;;;;;;;;;;;;5026378;28;20015;-66
2021/08/23 14:08:16;;;;;;;;;;;;;;;;;;5026738;28;19929;-68
2021/08/23 14:10:43;;;;;;;;;;;;;;;;;;5027240;28;20496;-68
2021/08/23 14:13:10;;;;;;;;;;;;;;;;;;5029332;28;19932;-66
2021/08/23 14:15:37;;;;;;;;;;;;;;;;;;5030426;28;19925;-67
2021/08/23 14:18:04;;;;;;;;;;;;;;;;;;5027238;28;19925;-68
2021/08/23 14:20:31;;;;;;;;;;;;;;;;;;5026318;28;20473;-70
2021/08/23 14:22:58;;;;;;;;;;;;;;;;;;5027861;28;20118;-67
2021/08/23 14:25:25;;;;;;;;;;;;;;;;;;5027191;28;19929;-67
2021/08/23 14:27:52;;;;;;;;;;;;;;;;;;5028107;28;19925;-67
2021/08/23 14:30:19;;;;;;;;;;;;;;;;;;5023458;28;19951;-67
2021/08/23 14:32:45;;;;;;;;;;;;;;;;;;5027886;28;19925;-68
2021/08/23 14:35:12;;;;;;;;;;;;;;;;;;5025357;28;19926;-66
2021/08/23 14:37:39;;;;;;;;;;;;;;;;;;5027061;28;19926;-67
2021/08/23 14:40:06;;;;;;;;;;;;;;;;;;5029248;28;19948;-66
2021/08/23 14:42:33;;;;;;;;;;;;;;;;;;5033511;28;19932;-68
2021/08/23 14:45:00;;;;;;;;;;;;;;;;;;5024565;28;19933;-69
2021/08/23 14:47:27;;;;;;;;;;;;;;;;;;5021488;28;19936;-66
2021/08/23 14:49:54;;;;;;;;;;;;;;;;;;5025235;28;19936;-68
2021/08/23 14:52:21;;;;;;;;;;;;;;;;;;5023468;28;19925;-66
2021/08/23 14:54:48;;;;;;;;;;;;;;;;;;5027868;28;19998;-67
2021/08/23 14:57:15;;;;;;;;;;;;;;;;;;5019585;28;19935;-67
2021/08/23 14:59:42;;;;;;;;;;;;;;;;;;5022346;28;20007;-67
2021/08/23 15:02:09;;;;;;;;;;;;;;;;;;5024773;28;19925;-66
2021/08/23 15:04:36;;;;;;;;;;;;;;;;;;5022592;28;19940;-68
2021/08/23 15:07:03;;;;;;;;;;;;;;;;;;5025710;28;19931;-66
2021/08/23 15:09:30;;;;;;;;;;;;;;;;;;5024431;28;19926;-64
2021/08/23 15:11:57;;;;;;;;;;;;;;;;;;5025699;28;19929;-66
2021/08/23 15:14:24;;;;;;;;;;;;;;;;;;5028717;28;20400;-65
2021/08/23 15:16:51;;;;;;;;;;;;;;;;;;5025591;28;19925;-64
2021/08/23 15:19:18;;;;;;;;;;;;;;;;;;5024146;28;19932;-62
2021/08/23 15:21:45;;;;;;;;;;;;;;;;;;5027434;28;19944;-64
2021/08/23 15:24:12;;;;;;;;;;;;;;;;;;5023509;28;19929;-65
2021/08/23 15:26:39;;;;;;;;;;;;;;;;;;5026871;28;19968;-66
2021/08/23 15:29:06;;;;;;;;;;;;;;;;;;5024498;28;19929;-64
2021/08/23 15:31:33;;;;;;;;;;;;;;;;;;5027106;28;19947;-65
2021/08/23 15:34:00;;;;;;;;;;;;;;;;;;5028140;28;21359;-63
2021/08/23 15:36:27;;;;;;;;;;;;;;;;;;5029342;28;20012;-64
2021/08/23 15:38:54;;;;;;;;;;;;;;;;;;5027509;28;19932;-66
2021/08/23 15:41:21;;;;;;;;;;;;;;;;;;5026630;28;19925;-66
2021/08/23 15:43:48;;;;;;;;;;;;;;;;;;5068734;22;19925;-63
2021/08/23 15:46:15;;;;;;;;;;;;;;;;;;5044536;28;19932;-64
2021/08/23 15:48:44;;;;;;;;;;;;;;;;;;5048532;28;19932;-62
2021/08/23 15:51:11;;;;;;;;;;;;;;;;;;5045497;28;19932;-62
2021/08/23 15:53:38;;;;;;;;;;;;;;;;;;5048140;28;19932;-66
2021/08/23 15:56:06;;;;;;;;;;;;;;;;;;5045852;28;19924;-66
2021/08/23 15:58:33;;;;;;;;;;;;;;;;;;5044498;28;20393;-64
2021/08/23 16:01:00;;;;;;;;;;;;;;;;;;5047606;28;19932;-62
2021/08/23 16:03:27;;;;;;;;;;;;;;;;;;5043434;28;19936;-63
2021/08/23 16:05:54;;;;;;;;;;;;;;;;;;5043812;28;19924;-63
2021/08/23 16:08:21;;;;;;;;;;;;;;;;;;5044239;28;19970;-62
2021/08/23 16:10:48;;;;;;;;;;;;;;;;;;5049184;28;20308;-63
2021/08/23 16:13:15;;;;;;;;;;;;;;;;;;5044643;28;20546;-63
2021/08/23 16:15:44;;;;;;;;;;;;;;;;;;5045393;28;20083;-68
2021/08/23 16:18:11;;;;;;;;;;;;;;;;;;5039735;28;19947;-67
2021/08/23 16:20:38;;;;;;;;;;;;;;;;;;5033942;28;20013;-68
2021/08/23 16:23:05;;;;;;;;;;;;;;;;;;5043847;28;19933;-67
2021/08/23 16:25:32;;;;;;;;;;;;;;;;;;5039498;28;20455;-67
2021/08/23 16:27:59;;;;;;;;;;;;;;;;;;5041239;28;19929;-66
2021/08/23 16:30:26;;;;;;;;;;;;;;;;;;5040182;28;20697;-67
2021/08/23 16:32:53;;;;;;;;;;;;;;;;;;5042692;28;19929;-67
2021/08/23 16:35:20;;;;;;;;;;;;;;;;;;5046603;28;19947;-67
2021/08/23 16:37:47;;;;;;;;;;;;;;;;;;5040808;28;19960;-67
2021/08/23 16:40:14;;;;;;;;;;;;;;;;;;5046592;28;19931;-66
2021/08/23 16:42:43;;;;;;;;;;;;;;;;;;5046765;28;20015;-69
2021/08/23 16:45:10;;;;;;;;;;;;;;;;;;5046107;28;19941;-67